Unity, IL

9:49 AM CST on March 01, 2015 (GMT -0600)
RAWS BEAN RIDGE IL US | Change Station
CLOSE
Current Station
Personal Weather Station
Location: Thebes, IL
Elevation: 700 ft
Nearby Weather Stations
Active Advisory: Winter Weather Advisory Active Notice: Record Report

Elev 700 ft 37.25 °N, 89.38 °W | Updated 41 minutes ago

Overcast
Overcast
34 °F
Feels Like 34 °F
N
1
Wind Variable Wind from NNW
Gusts 3.0 mph

Today
High -- | Low -- °F
--% Chance of Precip.
Yesterday
High -- | Low -- °F
Precip. -- in
6:28 AM 5:50 PM
Waxing Gibbous, 85% visible
Pressure 30.37 in
Visibility 7.0 miles
Clouds Mostly Cloudy 6000 ft
Mostly Cloudy 8000 ft
Overcast 11000 ft
Windchill 34 °F
Dew Point 32 °F
Humidity 91%
Rainfall 0.09 in
Snow Depth Not available.
UV 1 out of 12
Pollen .80 out of 12
Air Quality Not available.
Flu Activity Not available.
METAR KCIR 011535Z AUTO 32003KT 7SM BKN060 BKN080 OVC110 03/00 A3037 RMK AO2 T00250003

More Conditions Fewer Conditions

Pressure 30.37 in
Visibility 7.0 miles
Clouds Mostly Cloudy 6000 ft
Mostly Cloudy 8000 ft
Overcast 11000 ft
Windchill 34 °F
Dew Point 32 °F
Humidity 91%
Rainfall 0.09 in
Snow Depth Not available.
UV 1 out of 12
Pollen .80 out of 12
Air Quality Not available.
Flu Activity Not available.
METAR KCIR 011535Z AUTO 32003KT 7SM BKN060 BKN080 OVC110 03/00 A3037 RMK AO2 T00250003

More Conditions Fewer Conditions

10-Day Weather Forecast

Almanac

Astronomy

Mar. 01, 2015 Rise Set
Actual Time
Civil Twilight
Nautical Twilight
Astronomical Twilight
Moon
Length of Visible Light
Length of Day
Tomorrow will be .
, % of the Moon is Illuminated

Today's Extremes

State Highs State Lows

Community

WunderPhotos

Upload Photos

1,801,435 photos uploaded!

WunderBlogs® & News

Nearby

Air Quality

  Air Quality AQ Index Pollutant
Not available.

Snow Depth

Station Depth Elevation

Earthquake Activity

City Distance Mag. Time & Date
Minimum magnitude displayed is 2.5.

Coastal Water Temperatures

Place Temperature

Nearby Weather Stations

Winter Weather Advisory
Statement as of 4:19 AM CST on March 01, 2015

... Winter Weather Advisory in effect until noon CST today...

The National Weather Service in Paducah has issued a Winter
Weather Advisory for freezing rain... which is in effect until
noon CST today.

* Timing... light freezing rain showers will stream northeast
across far southeast Missouri early this morning. Temperatures
are expected to climb above freezing after 9 am.

* Accumulations... ice accumulations will be a tenth of an inch or
less.

* Impacts... hazardous travel conditions are anticipated.

Precautionary/preparedness actions...

A Winter Weather Advisory means that periods of snow... sleet... or
freezing rain will cause travel difficulties. Be prepared for
slippery roads and limited visibilities... and use caution while
driving.